Acton, Canada
Current Conditions -  °F | °C
As of 4:38 AM on Wednesday 22 Oct 2014 (Local Time) from CYKF Reporting Station
Broken Clouds Broken Clouds  
Wind Chill: 30°   Ceiling: 2600
Heat Index: 37°   Visibility: 9mi
Dew Point: 34°   Wind: 10mph
Humidity: 87%   Direction: 10°N
Pressure: 30.2"   Gusts: NA
Location:  43.63°N, 80.03°W
Report Text: CYKF 220838Z AUTO 01009KT 9SM SCT019 BKN026 03/01 A3020 RMK SLP234
Loading
Personal Weather Stations






























Interactive Weather Map
Tropical Storm Tracking
New forecast layout! Learn more

10-Day Weather Forecast

Advertisements
Track Severe Weather on mobile